sensor_id;sensor_type;location;lat;lon;timestamp;temperature;humidity
66013;DHT22;52783;50.502;8.190;2023-05-10T00:00:27;13.20;99.90
66013;DHT22;52783;50.502;8.190;2023-05-10T00:02:53;13.30;99.90
66013;DHT22;52783;50.502;8.190;2023-05-10T00:05:18;13.40;99.90
66013;DHT22;52783;50.502;8.190;2023-05-10T00:07:44;13.30;99.90
66013;DHT22;52783;50.502;8.190;2023-05-10T00:10:10;13.30;99.90
66013;DHT22;52783;50.502;8.190;2023-05-10T00:12:36;13.30;99.90
66013;DHT22;52783;50.502;8.190;2023-05-10T00:15:02;13.30;99.90
66013;DHT22;52783;50.502;8.190;2023-05-10T00:17:28;13.30;99.90
66013;DHT22;52783;50.502;8.190;2023-05-10T00:19:54;13.20;99.90
66013;DHT22;52783;50.502;8.190;2023-05-10T00:22:20;13.30;99.90
66013;DHT22;52783;50.502;8.190;2023-05-10T00:24:46;13.30;99.90
66013;DHT22;52783;50.502;8.190;2023-05-10T00:27:11;13.20;99.90
66013;DHT22;52783;50.502;8.190;2023-05-10T00:29:37;13.10;99.90
66013;DHT22;52783;50.502;8.190;2023-05-10T00:32:02;13.10;99.90
66013;DHT22;52783;50.502;8.190;2023-05-10T00:34:28;13.10;99.90
66013;DHT22;52783;50.502;8.190;2023-05-10T00:36:56;13.00;99.90
66013;DHT22;52783;50.502;8.190;2023-05-10T00:39:22;13.00;99.90
66013;DHT22;52783;50.502;8.190;2023-05-10T00:41:47;13.10;99.90
66013;DHT22;52783;50.502;8.190;2023-05-10T00:44:13;13.00;99.90
66013;DHT22;52783;50.502;8.190;2023-05-10T00:46:38;13.10;99.90
66013;DHT22;52783;50.502;8.190;2023-05-10T00:49:04;13.10;99.90
66013;DHT22;52783;50.502;8.190;2023-05-10T00:51:30;13.10;99.90
66013;DHT22;52783;50.502;8.190;2023-05-10T00:53:56;13.00;99.90
66013;DHT22;52783;50.502;8.190;2023-05-10T00:56:22;13.00;99.90
66013;DHT22;52783;50.502;8.190;2023-05-10T00:58:49;12.90;99.90
66013;DHT22;52783;50.502;8.190;2023-05-10T01:01:15;12.90;99.90
66013;DHT22;52783;50.502;8.190;2023-05-10T01:03:41;12.90;99.90
66013;DHT22;52783;50.502;8.190;2023-05-10T01:06:07;12.90;99.90
66013;DHT22;52783;50.502;8.190;2023-05-10T01:08:33;12.90;99.90
66013;DHT22;52783;50.502;8.190;2023-05-10T01:10:59;12.90;99.90
66013;DHT22;52783;50.502;8.190;2023-05-10T01:13:32;12.90;99.90
66013;DHT22;52783;50.502;8.190;2023-05-10T01:15:58;12.90;99.90
66013;DHT22;52783;50.502;8.190;2023-05-10T01:18:25;12.90;99.90
66013;DHT22;52783;50.502;8.190;2023-05-10T01:32:21;12.80;99.90
66013;DHT22;52783;50.502;8.190;2023-05-10T01:35:02;12.90;99.90
66013;DHT22;52783;50.502;8.190;2023-05-10T01:37:59;12.90;99.90
66013;DHT22;52783;50.502;8.190;2023-05-10T01:40:35;12.80;99.90
66013;DHT22;52783;50.502;8.190;2023-05-10T01:43:11;12.80;99.90
66013;DHT22;52783;50.502;8.190;2023-05-10T01:45:53;12.80;99.90
66013;DHT22;52783;50.502;8.190;2023-05-10T01:48:22;12.90;99.90
66013;DHT22;52783;50.502;8.190;2023-05-10T01:50:50;12.90;99.90
66013;DHT22;52783;50.502;8.190;2023-05-10T01:53:18;12.80;99.90
66013;DHT22;52783;50.502;8.190;2023-05-10T01:55:48;12.90;99.90
66013;DHT22;52783;50.502;8.190;2023-05-10T01:58:32;12.90;99.90
66013;DHT22;52783;50.502;8.190;2023-05-10T02:01:01;12.90;99.90
66013;DHT22;52783;50.502;8.190;2023-05-10T02:03:29;12.80;99.90
66013;DHT22;52783;50.502;8.190;2023-05-10T02:05:57;12.90;99.90
66013;DHT22;52783;50.502;8.190;2023-05-10T02:08:24;12.80;99.90
66013;DHT22;52783;50.502;8.190;2023-05-10T02:10:52;12.70;99.90
66013;DHT22;52783;50.502;8.190;2023-05-10T02:13:19;12.80;99.90
66013;DHT22;52783;50.502;8.190;2023-05-10T02:15:48;12.80;99.90
66013;DHT22;52783;50.502;8.190;2023-05-10T02:18:14;12.80;99.90
66013;DHT22;52783;50.502;8.190;2023-05-10T02:20:42;12.80;99.90
66013;DHT22;52783;50.502;8.190;2023-05-10T02:23:09;12.80;99.90
66013;DHT22;52783;50.502;8.190;2023-05-10T02:25:35;12.80;99.90
66013;DHT22;52783;50.502;8.190;2023-05-10T02:28:03;12.70;99.90
66013;DHT22;52783;50.502;8.190;2023-05-10T02:30:31;12.70;99.90
66013;DHT22;52783;50.502;8.190;2023-05-10T02:32:57;12.70;99.90
66013;DHT22;52783;50.502;8.190;2023-05-10T02:35:25;12.70;99.90
66013;DHT22;52783;50.502;8.190;2023-05-10T02:37:52;12.70;99.90
66013;DHT22;52783;50.502;8.190;2023-05-10T02:40:19;12.70;99.90
66013;DHT22;52783;50.502;8.190;2023-05-10T02:42:48;12.60;99.90
66013;DHT22;52783;50.502;8.190;2023-05-10T02:45:18;12.60;99.90
66013;DHT22;52783;50.502;8.190;2023-05-10T02:47:44;12.60;99.90
66013;DHT22;52783;50.502;8.190;2023-05-10T02:50:10;12.60;99.90
66013;DHT22;52783;50.502;8.190;2023-05-10T02:52:42;12.50;99.90
66013;DHT22;52783;50.502;8.190;2023-05-10T02:55:12;12.60;99.90
66013;DHT22;52783;50.502;8.190;2023-05-10T02:57:41;12.60;99.90
66013;DHT22;52783;50.502;8.190;2023-05-10T03:00:08;12.60;99.90
66013;DHT22;52783;50.502;8.190;2023-05-10T03:02:34;12.60;99.90
66013;DHT22;52783;50.502;8.190;2023-05-10T03:04:59;12.60;99.90
66013;DHT22;52783;50.502;8.190;2023-05-10T03:07:25;12.60;99.90
66013;DHT22;52783;50.502;8.190;2023-05-10T03:09:51;12.50;99.90
66013;DHT22;52783;50.502;8.190;2023-05-10T03:12:31;12.60;99.90
66013;DHT22;52783;50.502;8.190;2023-05-10T03:20:15;12.60;99.90
66013;DHT22;52783;50.502;8.190;2023-05-10T03:22:45;12.70;99.90
66013;DHT22;52783;50.502;8.190;2023-05-10T03:25:12;12.70;99.90
66013;DHT22;52783;50.502;8.190;2023-05-10T03:27:42;12.70;99.90
66013;DHT22;52783;50.502;8.190;2023-05-10T03:30:11;12.70;99.90
66013;DHT22;52783;50.502;8.190;2023-05-10T03:32:37;12.70;99.90
66013;DHT22;52783;50.502;8.190;2023-05-10T03:35:09;12.70;99.90
66013;DHT22;52783;50.502;8.190;2023-05-10T03:37:35;12.70;99.90
66013;DHT22;52783;50.502;8.190;2023-05-10T03:40:02;12.70;99.90
66013;DHT22;52783;50.502;8.190;2023-05-10T03:42:27;12.70;99.90
66013;DHT22;52783;50.502;8.190;2023-05-10T03:44:53;12.80;99.90
66013;DHT22;52783;50.502;8.190;2023-05-10T03:47:19;12.80;99.90
66013;DHT22;52783;50.502;8.190;2023-05-10T03:49:45;12.70;99.90
66013;DHT22;52783;50.502;8.190;2023-05-10T03:52:10;12.60;99.90
66013;DHT22;52783;50.502;8.190;2023-05-10T03:54:36;12.70;99.90
66013;DHT22;52783;50.502;8.190;2023-05-10T03:57:01;12.70;99.90
66013;DHT22;52783;50.502;8.190;2023-05-10T03:59:28;12.70;99.90
66013;DHT22;52783;50.502;8.190;2023-05-10T04:01:53;12.70;99.90
66013;DHT22;52783;50.502;8.190;2023-05-10T04:04:19;12.70;99.90
66013;DHT22;52783;50.502;8.190;2023-05-10T04:06:46;12.80;99.90
66013;DHT22;52783;50.502;8.190;2023-05-10T04:09:11;12.70;99.90
66013;DHT22;52783;50.502;8.190;2023-05-10T04:11:37;12.70;99.90
66013;DHT22;52783;50.502;8.190;2023-05-10T04:14:03;12.70;99.90
66013;DHT22;52783;50.502;8.190;2023-05-10T04:16:28;12.70;99.90
66013;DHT22;52783;50.502;8.190;2023-05-10T04:18:54;12.70;99.90
66013;DHT22;52783;50.502;8.190;2023-05-10T04:21:20;12.60;99.90
66013;DHT22;52783;50.502;8.190;2023-05-10T04:23:45;12.60;99.90
66013;DHT22;52783;50.502;8.190;2023-05-10T04:26:11;12.60;99.90
66013;DHT22;52783;50.502;8.190;2023-05-10T04:28:37;12.70;99.90
66013;DHT22;52783;50.502;8.190;2023-05-10T04:31:07;12.70;99.90
66013;DHT22;52783;50.502;8.190;2023-05-10T04:33:34;12.70;99.90
66013;DHT22;52783;50.502;8.190;2023-05-10T04:36:00;12.80;99.90
66013;DHT22;52783;50.502;8.190;2023-05-10T04:38:26;12.80;99.90
66013;DHT22;52783;50.502;8.190;2023-05-10T04:40:53;12.80;99.90
66013;DHT22;52783;50.502;8.190;2023-05-10T04:43:19;12.80;99.90
66013;DHT22;52783;50.502;8.190;2023-05-10T04:45:44;12.80;99.90
66013;DHT22;52783;50.502;8.190;2023-05-10T04:48:10;12.80;99.90
66013;DHT22;52783;50.502;8.190;2023-05-10T04:50:35;12.90;99.90
66013;DHT22;52783;50.502;8.190;2023-05-10T04:53:01;12.90;99.90
66013;DHT22;52783;50.502;8.190;2023-05-10T04:55:27;13.00;99.90
66013;DHT22;52783;50.502;8.190;2023-05-10T04:57:53;13.00;99.90
66013;DHT22;52783;50.502;8.190;2023-05-10T05:00:20;13.10;99.90
66013;DHT22;52783;50.502;8.190;2023-05-10T05:02:46;13.10;99.90
66013;DHT22;52783;50.502;8.190;2023-05-10T05:05:12;13.10;99.90
66013;DHT22;52783;50.502;8.190;2023-05-10T05:07:37;13.10;99.90
66013;DHT22;52783;50.502;8.190;2023-05-10T05:10:07;13.20;99.90
66013;DHT22;52783;50.502;8.190;2023-05-10T05:12:32;13.20;99.90
66013;DHT22;52783;50.502;8.190;2023-05-10T05:14:58;13.20;99.90
66013;DHT22;52783;50.502;8.190;2023-05-10T05:17:23;13.20;99.90
66013;DHT22;52783;50.502;8.190;2023-05-10T05:19:49;13.10;99.90
66013;DHT22;52783;50.502;8.190;2023-05-10T05:22:15;13.10;99.90
66013;DHT22;52783;50.502;8.190;2023-05-10T05:24:41;13.00;99.90
66013;DHT22;52783;50.502;8.190;2023-05-10T05:27:06;13.00;99.90
66013;DHT22;52783;50.502;8.190;2023-05-10T05:29:32;13.10;99.90
66013;DHT22;52783;50.502;8.190;2023-05-10T05:31:58;13.10;99.90
66013;DHT22;52783;50.502;8.190;2023-05-10T05:34:23;13.00;99.90
66013;DHT22;52783;50.502;8.190;2023-05-10T05:36:49;13.10;99.90
66013;DHT22;52783;50.502;8.190;2023-05-10T05:39:15;13.10;99.90
66013;DHT22;52783;50.502;8.190;2023-05-10T05:41:41;13.10;99.90
66013;DHT22;52783;50.502;8.190;2023-05-10T05:44:06;13.10;99.90
66013;DHT22;52783;50.502;8.190;2023-05-10T05:46:32;13.10;99.90
66013;DHT22;52783;50.502;8.190;2023-05-10T05:48:58;13.00;99.90
66013;DHT22;52783;50.502;8.190;2023-05-10T05:51:23;13.00;99.90
66013;DHT22;52783;50.502;8.190;2023-05-10T05:53:49;13.10;99.90
66013;DHT22;52783;50.502;8.190;2023-05-10T05:56:14;13.10;99.90
66013;DHT22;52783;50.502;8.190;2023-05-10T05:58:40;13.00;99.90
66013;DHT22;52783;50.502;8.190;2023-05-10T06:01:05;13.10;99.90
66013;DHT22;52783;50.502;8.190;2023-05-10T06:03:31;13.10;99.90
66013;DHT22;52783;50.502;8.190;2023-05-10T06:05:57;13.10;99.90
66013;DHT22;52783;50.502;8.190;2023-05-10T06:08:23;13.20;99.90
66013;DHT22;52783;50.502;8.190;2023-05-10T06:10:49;13.20;99.90
66013;DHT22;52783;50.502;8.190;2023-05-10T06:13:14;13.20;99.90
66013;DHT22;52783;50.502;8.190;2023-05-10T06:15:40;13.30;99.90
66013;DHT22;52783;50.502;8.190;2023-05-10T06:18:06;13.30;99.90
66013;DHT22;52783;50.502;8.190;2023-05-10T06:20:31;13.40;99.90
66013;DHT22;52783;50.502;8.190;2023-05-10T06:22:57;13.60;99.90
66013;DHT22;52783;50.502;8.190;2023-05-10T06:25:23;13.80;99.90
66013;DHT22;52783;50.502;8.190;2023-05-10T06:27:49;14.10;99.90
66013;DHT22;52783;50.502;8.190;2023-05-10T06:30:14;14.20;99.90
66013;DHT22;52783;50.502;8.190;2023-05-10T06:32:41;14.30;99.90
66013;DHT22;52783;50.502;8.190;2023-05-10T06:35:07;14.40;99.90
66013;DHT22;52783;50.502;8.190;2023-05-10T06:37:33;14.30;99.90
66013;DHT22;52783;50.502;8.190;2023-05-10T06:39:59;14.40;99.90
66013;DHT22;52783;50.502;8.190;2023-05-10T06:42:26;14.40;99.90
66013;DHT22;52783;50.502;8.190;2023-05-10T06:44:52;14.30;99.90
66013;DHT22;52783;50.502;8.190;2023-05-10T06:47:17;14.20;99.90
66013;DHT22;52783;50.502;8.190;2023-05-10T06:49:43;14.20;99.90
66013;DHT22;52783;50.502;8.190;2023-05-10T06:52:09;14.30;99.90
66013;DHT22;52783;50.502;8.190;2023-05-10T06:54:34;14.30;99.90
66013;DHT22;52783;50.502;8.190;2023-05-10T06:57:00;14.30;99.90
66013;DHT22;52783;50.502;8.190;2023-05-10T06:59:25;14.30;99.90
66013;DHT22;52783;50.502;8.190;2023-05-10T07:01:51;14.40;99.90
66013;DHT22;52783;50.502;8.190;2023-05-10T07:04:17;14.30;99.90
66013;DHT22;52783;50.502;8.190;2023-05-10T07:06:42;14.40;99.90
66013;DHT22;52783;50.502;8.190;2023-05-10T07:09:08;14.50;99.90
66013;DHT22;52783;50.502;8.190;2023-05-10T07:11:34;14.70;99.90
66013;DHT22;52783;50.502;8.190;2023-05-10T07:14:00;14.70;99.90
66013;DHT22;52783;50.502;8.190;2023-05-10T07:16:25;14.80;99.90
66013;DHT22;52783;50.502;8.190;2023-05-10T07:18:51;14.80;99.90
66013;DHT22;52783;50.502;8.190;2023-05-10T07:21:18;14.70;99.90
66013;DHT22;52783;50.502;8.190;2023-05-10T07:23:43;14.60;99.90
66013;DHT22;52783;50.502;8.190;2023-05-10T07:26:09;14.70;99.90
66013;DHT22;52783;50.502;8.190;2023-05-10T07:28:36;14.80;99.90
66013;DHT22;52783;50.502;8.190;2023-05-10T07:31:02;15.00;99.90
66013;DHT22;52783;50.502;8.190;2023-05-10T07:33:28;15.40;99.90
66013;DHT22;52783;50.502;8.190;2023-05-10T07:35:54;15.40;99.90
66013;DHT22;52783;50.502;8.190;2023-05-10T07:38:20;15.70;99.90
66013;DHT22;52783;50.502;8.190;2023-05-10T07:40:45;15.90;99.90
66013;DHT22;52783;50.502;8.190;2023-05-10T07:43:11;15.80;99.90
66013;DHT22;52783;50.502;8.190;2023-05-10T07:45:36;15.40;99.90
66013;DHT22;52783;50.502;8.190;2023-05-10T07:48:02;15.20;99.90
66013;DHT22;52783;50.502;8.190;2023-05-10T07:50:28;14.80;99.90
66013;DHT22;52783;50.502;8.190;2023-05-10T07:52:53;14.70;99.90
66013;DHT22;52783;50.502;8.190;2023-05-10T07:55:19;14.60;99.90
66013;DHT22;52783;50.502;8.190;2023-05-10T07:57:46;14.40;99.90
66013;DHT22;52783;50.502;8.190;2023-05-10T08:00:13;14.50;99.90
66013;DHT22;52783;50.502;8.190;2023-05-10T08:02:41;14.50;99.90
66013;DHT22;52783;50.502;8.190;2023-05-10T08:05:07;14.50;99.90
66013;DHT22;52783;50.502;8.190;2023-05-10T08:07:33;14.80;99.90
66013;DHT22;52783;50.502;8.190;2023-05-10T08:09:59;15.10;99.90
66013;DHT22;52783;50.502;8.190;2023-05-10T08:12:24;15.50;99.90
66013;DHT22;52783;50.502;8.190;2023-05-10T08:14:50;15.60;99.90
66013;DHT22;52783;50.502;8.190;2023-05-10T08:17:16;15.60;99.90
66013;DHT22;52783;50.502;8.190;2023-05-10T08:19:41;15.60;99.90
66013;DHT22;52783;50.502;8.190;2023-05-10T08:22:07;15.30;99.90
66013;DHT22;52783;50.502;8.190;2023-05-10T08:24:32;15.50;99.90
66013;DHT22;52783;50.502;8.190;2023-05-10T08:27:00;15.50;99.90
66013;DHT22;52783;50.502;8.190;2023-05-10T08:29:26;15.20;99.90
66013;DHT22;52783;50.502;8.190;2023-05-10T08:31:51;15.00;99.90
66013;DHT22;52783;50.502;8.190;2023-05-10T08:34:17;15.00;99.90
66013;DHT22;52783;50.502;8.190;2023-05-10T08:36:42;14.90;99.90
66013;DHT22;52783;50.502;8.190;2023-05-10T08:39:08;15.00;99.90
66013;DHT22;52783;50.502;8.190;2023-05-10T08:41:35;15.20;99.90
66013;DHT22;52783;50.502;8.190;2023-05-10T08:44:04;15.70;99.90
66013;DHT22;52783;50.502;8.190;2023-05-10T08:46:31;16.00;99.90
66013;DHT22;52783;50.502;8.190;2023-05-10T08:49:02;16.30;99.90
66013;DHT22;52783;50.502;8.190;2023-05-10T08:51:31;16.20;99.90
66013;DHT22;52783;50.502;8.190;2023-05-10T08:53:58;16.30;99.90
66013;DHT22;52783;50.502;8.190;2023-05-10T08:56:25;16.20;99.90
66013;DHT22;52783;50.502;8.190;2023-05-10T08:58:50;16.20;99.90
66013;DHT22;52783;50.502;8.190;2023-05-10T09:01:18;16.80;99.90
66013;DHT22;52783;50.502;8.190;2023-05-10T09:03:46;17.00;99.90
66013;DHT22;52783;50.502;8.190;2023-05-10T09:06:13;17.40;99.90
66013;DHT22;52783;50.502;8.190;2023-05-10T09:08:39;17.70;99.90
66013;DHT22;52783;50.502;8.190;2023-05-10T09:11:06;17.50;99.90
66013;DHT22;52783;50.502;8.190;2023-05-10T09:13:32;17.40;99.90
66013;DHT22;52783;50.502;8.190;2023-05-10T09:15:59;17.40;99.90
66013;DHT22;52783;50.502;8.190;2023-05-10T09:18:25;17.30;99.90
66013;DHT22;52783;50.502;8.190;2023-05-10T09:20:50;17.20;99.90
66013;DHT22;52783;50.502;8.190;2023-05-10T09:23:16;17.00;99.90
66013;DHT22;52783;50.502;8.190;2023-05-10T09:25:42;17.40;99.90
66013;DHT22;52783;50.502;8.190;2023-05-10T09:28:08;17.40;99.90
66013;DHT22;52783;50.502;8.190;2023-05-10T09:30:35;17.70;99.90
66013;DHT22;52783;50.502;8.190;2023-05-10T09:33:01;18.20;99.90
66013;DHT22;52783;50.502;8.190;2023-05-10T09:35:33;19.00;99.90
66013;DHT22;52783;50.502;8.190;2023-05-10T09:38:05;18.70;99.90
66013;DHT22;52783;50.502;8.190;2023-05-10T09:40:30;18.10;99.90
66013;DHT22;52783;50.502;8.190;2023-05-10T09:43:09;17.80;99.90
66013;DHT22;52783;50.502;8.190;2023-05-10T09:45:36;17.80;99.90
66013;DHT22;52783;50.502;8.190;2023-05-10T09:48:03;18.60;99.90
66013;DHT22;52783;50.502;8.190;2023-05-10T09:50:29;19.20;99.90
66013;DHT22;52783;50.502;8.190;2023-05-10T09:52:59;20.20;99.90
66013;DHT22;52783;50.502;8.190;2023-05-10T09:55:44;19.60;99.90
66013;DHT22;52783;50.502;8.190;2023-05-10T09:58:14;18.70;99.90
66013;DHT22;52783;50.502;8.190;2023-05-10T10:00:41;18.40;99.90
66013;DHT22;52783;50.502;8.190;2023-05-10T10:03:13;17.90;99.90
66013;DHT22;52783;50.502;8.190;2023-05-10T10:05:41;17.50;99.90
66013;DHT22;52783;50.502;8.190;2023-05-10T10:08:08;17.00;99.90
66013;DHT22;52783;50.502;8.190;2023-05-10T10:10:33;16.60;99.90
66013;DHT22;52783;50.502;8.190;2023-05-10T10:12:59;16.60;99.90
66013;DHT22;52783;50.502;8.190;2023-05-10T10:15:25;16.20;99.90
66013;DHT22;52783;50.502;8.190;2023-05-10T10:17:52;16.20;99.90
66013;DHT22;52783;50.502;8.190;2023-05-10T10:20:20;16.30;99.90
66013;DHT22;52783;50.502;8.190;2023-05-10T10:22:47;16.20;99.90
66013;DHT22;52783;50.502;8.190;2023-05-10T10:25:15;16.10;99.90
66013;DHT22;52783;50.502;8.190;2023-05-10T10:36:04;16.30;99.90
66013;DHT22;52783;50.502;8.190;2023-05-10T10:46:58;16.40;99.90
66013;DHT22;52783;50.502;8.190;2023-05-10T10:49:25;16.20;99.90
66013;DHT22;52783;50.502;8.190;2023-05-10T10:52:12;16.10;99.90
66013;DHT22;52783;50.502;8.190;2023-05-10T10:54:38;15.90;99.90
66013;DHT22;52783;50.502;8.190;2023-05-10T10:57:14;15.70;99.90
66013;DHT22;52783;50.502;8.190;2023-05-10T10:59:43;15.60;99.90
66013;DHT22;52783;50.502;8.190;2023-05-10T11:02:09;15.50;99.90
66013;DHT22;52783;50.502;8.190;2023-05-10T11:04:44;15.50;99.90
66013;DHT22;52783;50.502;8.190;2023-05-10T11:07:18;15.60;99.90
66013;DHT22;52783;50.502;8.190;2023-05-10T11:09:46;16.00;99.90
66013;DHT22;52783;50.502;8.190;2023-05-10T11:12:12;16.10;99.90
66013;DHT22;52783;50.502;8.190;2023-05-10T11:14:38;16.30;99.90
66013;DHT22;52783;50.502;8.190;2023-05-10T11:17:23;16.30;99.90
66013;DHT22;52783;50.502;8.190;2023-05-10T11:20:09;16.60;99.90
66013;DHT22;52783;50.502;8.190;2023-05-10T11:22:53;17.20;99.90
66013;DHT22;52783;50.502;8.190;2023-05-10T11:25:19;17.30;99.90
66013;DHT22;52783;50.502;8.190;2023-05-10T11:27:47;17.80;99.90
66013;DHT22;52783;50.502;8.190;2023-05-10T11:30:14;18.00;99.90
66013;DHT22;52783;50.502;8.190;2023-05-10T11:32:40;18.00;99.90
66013;DHT22;52783;50.502;8.190;2023-05-10T11:35:10;18.00;99.90
66013;DHT22;52783;50.502;8.190;2023-05-10T11:37:37;18.10;99.90
66013;DHT22;52783;50.502;8.190;2023-05-10T11:40:10;18.50;99.90
66013;DHT22;52783;50.502;8.190;2023-05-10T11:42:38;18.30;99.90
66013;DHT22;52783;50.502;8.190;2023-05-10T11:45:05;17.90;99.90
66013;DHT22;52783;50.502;8.190;2023-05-10T11:47:30;18.30;99.90
66013;DHT22;52783;50.502;8.190;2023-05-10T11:49:57;18.50;99.90
66013;DHT22;52783;50.502;8.190;2023-05-10T11:52:23;18.20;99.90
66013;DHT22;52783;50.502;8.190;2023-05-10T11:54:52;18.10;99.90
66013;DHT22;52783;50.502;8.190;2023-05-10T11:57:20;17.90;99.90
66013;DHT22;52783;50.502;8.190;2023-05-10T11:59:46;17.70;99.90
66013;DHT22;52783;50.502;8.190;2023-05-10T12:02:15;18.10;99.90
66013;DHT22;52783;50.502;8.190;2023-05-10T12:04:41;18.00;99.90
66013;DHT22;52783;50.502;8.190;2023-05-10T12:07:07;18.40;99.90
66013;DHT22;52783;50.502;8.190;2023-05-10T12:09:32;18.50;99.90
66013;DHT22;52783;50.502;8.190;2023-05-10T12:11:58;18.80;99.90
66013;DHT22;52783;50.502;8.190;2023-05-10T12:14:23;18.60;99.90
66013;DHT22;52783;50.502;8.190;2023-05-10T12:16:49;18.20;99.90
66013;DHT22;52783;50.502;8.190;2023-05-10T12:19:18;18.30;99.90
66013;DHT22;52783;50.502;8.190;2023-05-10T12:21:45;18.20;99.90
66013;DHT22;52783;50.502;8.190;2023-05-10T12:24:11;17.70;99.90
66013;DHT22;52783;50.502;8.190;2023-05-10T12:26:37;17.50;99.90
66013;DHT22;52783;50.502;8.190;2023-05-10T12:29:17;17.10;99.90
66013;DHT22;52783;50.502;8.190;2023-05-10T12:31:51;17.20;99.90
66013;DHT22;52783;50.502;8.190;2023-05-10T12:34:31;17.00;99.90
66013;DHT22;52783;50.502;8.190;2023-05-10T12:36:58;16.90;99.90
66013;DHT22;52783;50.502;8.190;2023-05-10T12:39:24;16.60;99.90
66013;DHT22;52783;50.502;8.190;2023-05-10T12:41:51;16.40;99.90
66013;DHT22;52783;50.502;8.190;2023-05-10T12:44:17;16.50;99.90
66013;DHT22;52783;50.502;8.190;2023-05-10T12:46:43;16.70;99.90
66013;DHT22;52783;50.502;8.190;2023-05-10T12:49:09;16.90;99.90
66013;DHT22;52783;50.502;8.190;2023-05-10T12:51:34;17.00;99.90
66013;DHT22;52783;50.502;8.190;2023-05-10T12:54:00;17.30;99.90
66013;DHT22;52783;50.502;8.190;2023-05-10T12:56:26;17.40;99.90
66013;DHT22;52783;50.502;8.190;2023-05-10T12:58:51;17.70;99.90
66013;DHT22;52783;50.502;8.190;2023-05-10T13:01:17;17.70;99.90
66013;DHT22;52783;50.502;8.190;2023-05-10T13:03:42;17.80;99.90
66013;DHT22;52783;50.502;8.190;2023-05-10T13:06:11;17.70;99.90
66013;DHT22;52783;50.502;8.190;2023-05-10T13:08:38;18.00;99.90
66013;DHT22;52783;50.502;8.190;2023-05-10T13:11:05;17.80;99.90
66013;DHT22;52783;50.502;8.190;2023-05-10T13:13:30;18.20;99.90
66013;DHT22;52783;50.502;8.190;2023-05-10T13:15:56;18.40;99.90
66013;DHT22;52783;50.502;8.190;2023-05-10T13:18:21;18.20;99.90
66013;DHT22;52783;50.502;8.190;2023-05-10T13:20:47;18.20;99.90
66013;DHT22;52783;50.502;8.190;2023-05-10T13:23:14;18.40;99.90
66013;DHT22;52783;50.502;8.190;2023-05-10T13:25:40;18.30;99.90
66013;DHT22;52783;50.502;8.190;2023-05-10T13:28:05;18.10;99.90
66013;DHT22;52783;50.502;8.190;2023-05-10T13:30:31;18.20;99.90
66013;DHT22;52783;50.502;8.190;2023-05-10T13:32:56;18.30;99.90
66013;DHT22;52783;50.502;8.190;2023-05-10T13:35:22;18.20;99.90
66013;DHT22;52783;50.502;8.190;2023-05-10T13:37:48;18.00;99.90
66013;DHT22;52783;50.502;8.190;2023-05-10T13:40:14;18.10;99.90
66013;DHT22;52783;50.502;8.190;2023-05-10T13:42:40;18.10;99.90
66013;DHT22;52783;50.502;8.190;2023-05-10T13:45:06;18.00;99.90
66013;DHT22;52783;50.502;8.190;2023-05-10T13:47:32;17.80;99.90
66013;DHT22;52783;50.502;8.190;2023-05-10T13:49:58;17.60;99.90
66013;DHT22;52783;50.502;8.190;2023-05-10T13:52:23;17.20;99.90
66013;DHT22;52783;50.502;8.190;2023-05-10T13:54:49;17.10;99.90
66013;DHT22;52783;50.502;8.190;2023-05-10T13:57:14;16.90;99.90
66013;DHT22;52783;50.502;8.190;2023-05-10T13:59:42;16.40;99.90
66013;DHT22;52783;50.502;8.190;2023-05-10T14:02:07;15.90;99.90
66013;DHT22;52783;50.502;8.190;2023-05-10T14:04:33;15.70;99.90
66013;DHT22;52783;50.502;8.190;2023-05-10T14:07:00;15.40;99.90
66013;DHT22;52783;50.502;8.190;2023-05-10T14:09:26;15.40;99.90
66013;DHT22;52783;50.502;8.190;2023-05-10T14:11:51;15.20;99.90
66013;DHT22;52783;50.502;8.190;2023-05-10T14:14:17;15.10;99.90
66013;DHT22;52783;50.502;8.190;2023-05-10T14:16:44;15.30;99.90
66013;DHT22;52783;50.502;8.190;2023-05-10T14:19:10;15.10;99.90
66013;DHT22;52783;50.502;8.190;2023-05-10T14:21:35;15.10;99.90
66013;DHT22;52783;50.502;8.190;2023-05-10T14:24:01;15.30;99.90
66013;DHT22;52783;50.502;8.190;2023-05-10T14:26:26;15.30;99.90
66013;DHT22;52783;50.502;8.190;2023-05-10T14:28:52;15.50;99.90
66013;DHT22;52783;50.502;8.190;2023-05-10T14:31:18;15.20;99.90
66013;DHT22;52783;50.502;8.190;2023-05-10T14:33:46;15.40;99.90
66013;DHT22;52783;50.502;8.190;2023-05-10T14:36:11;15.80;99.90
66013;DHT22;52783;50.502;8.190;2023-05-10T14:38:37;15.80;99.90
66013;DHT22;52783;50.502;8.190;2023-05-10T14:41:02;16.00;99.90
66013;DHT22;52783;50.502;8.190;2023-05-10T14:43:28;15.90;99.90
66013;DHT22;52783;50.502;8.190;2023-05-10T14:45:53;15.90;99.90
66013;DHT22;52783;50.502;8.190;2023-05-10T14:48:19;16.00;99.90
66013;DHT22;52783;50.502;8.190;2023-05-10T14:50:46;16.20;99.90
66013;DHT22;52783;50.502;8.190;2023-05-10T14:53:12;16.20;99.90
66013;DHT22;52783;50.502;8.190;2023-05-10T14:55:37;16.20;99.90
66013;DHT22;52783;50.502;8.190;2023-05-10T14:58:04;16.50;99.90
66013;DHT22;52783;50.502;8.190;2023-05-10T15:00:30;16.90;99.90
66013;DHT22;52783;50.502;8.190;2023-05-10T15:02:55;16.90;99.90
66013;DHT22;52783;50.502;8.190;2023-05-10T15:05:21;17.20;99.90
66013;DHT22;52783;50.502;8.190;2023-05-10T15:07:47;17.40;99.90
66013;DHT22;52783;50.502;8.190;2023-05-10T15:10:12;17.40;99.90
66013;DHT22;52783;50.502;8.190;2023-05-10T15:12:39;17.50;99.90
66013;DHT22;52783;50.502;8.190;2023-05-10T15:15:05;17.30;99.90
66013;DHT22;52783;50.502;8.190;2023-05-10T15:17:31;17.50;99.90
66013;DHT22;52783;50.502;8.190;2023-05-10T15:19:57;17.70;99.90
66013;DHT22;52783;50.502;8.190;2023-05-10T15:22:23;17.60;99.90
66013;DHT22;52783;50.502;8.190;2023-05-10T15:24:49;17.60;99.90
66013;DHT22;52783;50.502;8.190;2023-05-10T15:27:14;17.60;99.90
66013;DHT22;52783;50.502;8.190;2023-05-10T15:29:40;17.40;99.90
66013;DHT22;52783;50.502;8.190;2023-05-10T15:32:05;17.40;99.90
66013;DHT22;52783;50.502;8.190;2023-05-10T15:34:31;17.50;99.90
66013;DHT22;52783;50.502;8.190;2023-05-10T15:36:57;17.50;99.90
66013;DHT22;52783;50.502;8.190;2023-05-10T15:39:22;17.60;99.90
66013;DHT22;52783;50.502;8.190;2023-05-10T15:41:48;17.70;99.90
66013;DHT22;52783;50.502;8.190;2023-05-10T15:44:14;17.60;99.90
66013;DHT22;52783;50.502;8.190;2023-05-10T15:46:39;17.90;99.90
66013;DHT22;52783;50.502;8.190;2023-05-10T15:49:05;17.80;99.90
66013;DHT22;52783;50.502;8.190;2023-05-10T15:51:31;17.80;99.90
66013;DHT22;52783;50.502;8.190;2023-05-10T15:53:58;17.50;99.90
66013;DHT22;52783;50.502;8.190;2023-05-10T15:56:23;17.60;99.90
66013;DHT22;52783;50.502;8.190;2023-05-10T15:58:49;17.40;99.90
66013;DHT22;52783;50.502;8.190;2023-05-10T16:01:14;17.30;99.90